Strona główna
METAR-TAF:

METAR-TAF

Lotnisko :

Armilla

Grenada, Hiszpania

Szerokość geograficzna: 37-08N, Długość geograficzna: 003-38-08W, wysokość: 700 m

Aktualna obserwacja pogody

Raport powstał 5 godziny i 9 minut temu, godzina 14:00 UTC
Wiatr 11 kt od południe, zmienny między południowy wschód i południowo-południowy zachód
Temperatura 34°C
Wilgotność 19%
Ciśnienie 1012 hPa
Widzialność 10 km lub więcej
Mało chmury na wysokości 10000 ft

METAR: LEGA 251400Z 17011KT 140V200 9999 FEW100 34/07 Q1012

czas: 21:09 (19:09 UTC)

Prognoza

Raport powstał 8 godziny i 9 minut temu, godzina 11:00 UTC
Prognoza ważna od 25 godzina 12 UTC do 26 godzina 12 UTC
Wiatr 14 kt od południe
Widzialność 10 km lub więcej
Brak chmur poniżej 1500 m i brak chmur cumulonimbus
Stopniowe zmiany
od 25 godzina 22 UTC do 25 godzina 24 UTC
Wiatr 3 kt z kierunków zmiennych

TAF: LEGA 251100Z 2512/2612 18014KT CAVOK TX37/2515Z TN16/2606Z BECMG 2522/2524 VRB03KT

Obserwacja i prognoza pogody dla ponad 4000 lotnisk (raport METAR i TAF).

Dostępne stacje oznaczono żółtymi i czerwonymi punktami na mapie.

Najedź kursorem aby zobaczyć nazwę stacji.

Kliknij aby zobaczyć obserwacje i prognozy pogody.

Aby zmienić mapę: kliknij na zielony przycisk z czarnym krzyżykiem, aby powiększyć; na zielony przycisk z myślnikiem, aby pomniejszyć; na zielone strzałki, aby przejść do map sąsiednich.


METAR-TAF: